Bookmark and Share
Track history (hours):
 

Star Herdla

Last reported at 2014-Apr-20 07:27 UTC. Time now 2014-Apr-23 12:45 UTC.
Position N 31°52' E 120°53'.

Type: Cargo ship. MMSI: 258954000.

NotesDate/timePositionNaut miles runAvg speedWind from/ knotsBaromVisibWave heightAir tempDewpointWater temp
2014-Apr-20 07:27N 31°52' E 120°53'1011.0
2014-Apr-20 06:30N 32°01' E 120°46'4 3.5
2014-Apr-20 05:27N 31°60' E 120°42'0 0.0
2014-Apr-20 04:30N 31°60' E 120°42'0 0.0
2014-Apr-20 03:21N 31°60' E 120°42'3 4.0
2014-Apr-20 02:33N 31°60' E 120°38'8 8.3
2014-Apr-20 01:33N 32°04' E 120°30'5 5.2
2014-Apr-20 00:33N 32°03' E 120°24'0 0.1
2014-Apr-19 23:31N 32°03' E 120°24'0 0.0
2014-Apr-19 22:23N 32°03' E 120°24'0 0.0
2014-Apr-19 21:32N 32°03' E 120°24'0 0.0
2014-Apr-19 20:32N 32°03' E 120°24'0 0.0
2014-Apr-19 19:32N 32°03' E 120°24'0 0.0
2014-Apr-19 18:32N 32°03' E 120°24'0 0.0
2014-Apr-19 17:32N 32°03' E 120°24'0 0.0
2014-Apr-19 16:32N 32°03' E 120°24'0 0.0
2014-Apr-19 15:32N 32°03' E 120°24'0 0.0
2014-Apr-19 14:32N 32°03' E 120°24'0 0.0
2014-Apr-19 13:26N 32°03' E 120°24'0 0.0
2014-Apr-19 12:32N 32°03' E 120°24'0 0.0
2014-Apr-19 11:32N 32°03' E 120°24'0 0.0
2014-Apr-19 10:32N 32°03' E 120°24'0 0.0
2014-Apr-19 09:23N 32°03' E 120°24'0 0.0
2014-Apr-19 08:17N 32°03' E 120°24'0 0.0
2014-Apr-19 07:14N 32°03' E 120°24'0 0.0
2014-Apr-19 06:32N 32°03' E 120°24'0 0.0
2014-Apr-19 05:17N 32°03' E 120°24'0 0.0
2014-Apr-19 04:29N 32°03' E 120°24'0 0.0
2014-Apr-19 03:17N 32°03' E 120°24'0 0.0
2014-Apr-19 02:32N 32°03' E 120°24'0 0.0
2014-Apr-19 01:32N 32°03' E 120°24'0 0.0
2014-Apr-19 00:17N 32°03' E 120°24'0 0.0
2014-Apr-18 23:32N 32°03' E 120°24'0 0.0
2014-Apr-18 22:32N 32°03' E 120°24'0 0.0
2014-Apr-18 21:14N 32°03' E 120°24'0 0.0
2014-Apr-18 20:32N 32°03' E 120°24'0 0.0
2014-Apr-18 19:32N 32°03' E 120°24'0 0.0
2014-Apr-18 18:29N 32°03' E 120°24'0 0.0
2014-Apr-18 17:32N 32°03' E 120°24'0 0.0
2014-Apr-18 16:26N 32°03' E 120°24'0 0.0
2014-Apr-18 15:32N 32°03' E 120°24'0 0.0
2014-Apr-18 14:32N 32°03' E 120°24'0 0.0
2014-Apr-18 13:32N 32°03' E 120°24'0 0.0
2014-Apr-18 12:32N 32°03' E 120°24'0 0.0
2014-Apr-18 11:32N 32°03' E 120°24'0 0.0
2014-Apr-18 10:32N 32°03' E 120°24'0 0.0
2014-Apr-18 09:32N 32°03' E 120°24'0 0.0
2014-Apr-18 08:29N 32°03' E 120°24'0 0.0
2014-Apr-18 07:32N 32°03' E 120°24'0 0.0
2014-Apr-18 06:32N 32°03' E 120°24'0 0.0
2014-Apr-18 05:33N 32°03' E 120°24'0 0.0
2014-Apr-18 04:26N 32°03' E 120°24'0 0.0
2014-Apr-18 03:32N 32°03' E 120°24'0 0.0
2014-Apr-18 02:32N 32°03' E 120°24'0 0.0
2014-Apr-18 01:32N 32°03' E 120°24'0 0.0
2014-Apr-18 00:32N 32°03' E 120°24'0 0.0
2014-Apr-17 23:32N 32°03' E 120°24'0 0.0
2014-Apr-17 22:29N 32°03' E 120°24'0 0.0
2014-Apr-17 21:32N 32°03' E 120°24'0 0.0
2014-Apr-17 20:29N 32°03' E 120°24'0 0.0
2014-Apr-17 19:32N 32°03' E 120°24'0 0.0
2014-Apr-17 18:32N 32°03' E 120°24'0 0.0
2014-Apr-17 17:32N 32°03' E 120°24'0 0.0
2014-Apr-17 16:32N 32°03' E 120°24'0 0.0
2014-Apr-17 15:20N 32°03' E 120°24'0 0.0
2014-Apr-17 14:32N 32°03' E 120°24'0 0.0
2014-Apr-17 13:32N 32°03' E 120°24'0 0.0
2014-Apr-17 12:32N 32°03' E 120°24'0 0.0
2014-Apr-17 11:32N 32°03' E 120°24'0 0.0
2014-Apr-17 10:32N 32°03' E 120°24'0 0.0
2014-Apr-17 09:32N 32°03' E 120°24'0 0.0
2014-Apr-17 08:26N 32°03' E 120°24'0 0.0
2014-Apr-17 07:32N 32°03' E 120°24'0 0.0
2014-Apr-17 06:32N 32°03' E 120°24'0 0.0
2014-Apr-17 05:32N 32°03' E 120°24'0 0.0
2014-Apr-17 04:32N 32°03' E 120°24'0 0.0
2014-Apr-17 03:32N 32°03' E 120°24'0 0.0
2014-Apr-17 02:32N 32°03' E 120°24'0 0.0
2014-Apr-17 01:32N 32°03' E 120°24'0 0.0
2014-Apr-17 00:32N 32°03' E 120°24'0 0.0
2014-Apr-16 23:32N 32°03' E 120°24'0 0.0
2014-Apr-16 22:26N 32°03' E 120°24'0 0.0
2014-Apr-16 21:32N 32°03' E 120°24'0 0.0
2014-Apr-16 20:32N 32°03' E 120°24'0 0.0
2014-Apr-16 19:26N 32°03' E 120°24'0 0.0
2014-Apr-16 18:32N 32°03' E 120°24'0 0.0
2014-Apr-16 17:32N 32°03' E 120°24'0 0.0
2014-Apr-16 16:32N 32°03' E 120°24'0 0.0
2014-Apr-16 15:32N 32°03' E 120°24'0 0.0
2014-Apr-16 14:32N 32°03' E 120°24'0 0.0
2014-Apr-16 13:32N 32°03' E 120°24'0 0.0
2014-Apr-16 12:29N 32°03' E 120°24'0 0.0
2014-Apr-16 11:29N 32°03' E 120°24'0 0.0
2014-Apr-16 10:32N 32°03' E 120°24'0 0.0
2014-Apr-16 09:32N 32°03' E 120°24'0 0.0
2014-Apr-16 08:32N 32°03' E 120°24'0 0.0
2014-Apr-16 07:32N 32°03' E 120°24'0 0.0
2014-Apr-16 06:32N 32°03' E 120°24'0 0.0
2014-Apr-16 05:32N 32°03' E 120°24'0 0.0
2014-Apr-16 04:32N 32°03' E 120°24'0 0.0
2014-Apr-16 03:32N 32°03' E 120°24'0 0.0
2014-Apr-16 02:32N 32°03' E 120°24'0 0.0
2014-Apr-16 01:29N 32°03' E 120°24'0 0.0
2014-Apr-16 00:32N 32°03' E 120°24'0 0.0
2014-Apr-15 23:29N 32°03' E 120°24'0 0.0
2014-Apr-15 22:32N 32°03' E 120°24'0 0.0
2014-Apr-15 21:32N 32°03' E 120°24'0 0.0
2014-Apr-15 20:32N 32°03' E 120°24'0 0.0
2014-Apr-15 19:32N 32°03' E 120°24'0 0.0
2014-Apr-15 18:32N 32°03' E 120°24'0 0.0
2014-Apr-15 17:32N 32°03' E 120°24'0 0.0
2014-Apr-15 16:29N 32°03' E 120°24'0 0.0
2014-Apr-15 15:32N 32°03' E 120°24'0 0.0
2014-Apr-15 14:32N 32°03' E 120°24'0 0.0
2014-Apr-15 12:32N 32°03' E 120°24'0 0.0
2014-Apr-15 11:29N 32°03' E 120°24'0 0.0
2014-Apr-15 10:32N 32°03' E 120°24'0 0.0
2014-Apr-15 09:32N 32°03' E 120°24'0 0.0
2014-Apr-15 08:32N 32°03' E 120°24'0 0.0
2014-Apr-15 07:32N 32°03' E 120°24'0 0.0
2014-Apr-15 06:32N 32°03' E 120°24'0 0.0
2014-Apr-15 05:32N 32°03' E 120°24'0 0.0
2014-Apr-15 03:32N 32°03' E 120°24'0 0.0
2014-Apr-15 02:32N 32°03' E 120°24'0 0.0
2014-Apr-15 01:32N 32°03' E 120°24'0 0.0
2014-Apr-14 23:32N 32°03' E 120°24'0 0.0
2014-Apr-14 22:32N 32°03' E 120°24'0 0.0
2014-Apr-14 21:32N 32°03' E 120°24'0 0.0
2014-Apr-14 19:32N 32°03' E 120°24'0 0.0
2014-Apr-14 18:32N 32°03' E 120°24'0 0.0
2014-Apr-14 17:32N 32°03' E 120°24'0 0.0
2014-Apr-14 16:32N 32°03' E 120°24'0 0.0
2014-Apr-14 15:32N 32°03' E 120°24'0 0.0
2014-Apr-14 14:32N 32°03' E 120°24'0 0.0
2014-Apr-14 11:32N 32°03' E 120°24'0 0.0
2014-Apr-14 10:32N 32°03' E 120°24'0 0.0
2014-Apr-14 09:32N 32°03' E 120°24'0 0.0
2014-Apr-14 08:32N 32°03' E 120°24'0 0.0
2014-Apr-14 06:32N 32°03' E 120°24'0 0.0
2014-Apr-14 05:32N 32°03' E 120°24'0 0.0
2014-Apr-13 22:20N 32°03' E 120°24'0 0.0
2014-Apr-13 21:32N 32°03' E 120°24'0 0.0
2014-Apr-13 20:32N 32°03' E 120°24'0 0.0
2014-Apr-13 19:29N 32°03' E 120°24'0 0.0
2014-Apr-13 18:32N 32°03' E 120°24'0 0.0
2014-Apr-13 17:17N 32°03' E 120°24'0 0.0
2014-Apr-13 16:32N 32°03' E 120°24'0 0.0
2014-Apr-13 15:32N 32°03' E 120°24'0 0.0
2014-Apr-13 14:32N 32°03' E 120°24'0 0.0
2014-Apr-13 13:32N 32°03' E 120°24'0 0.0
2014-Apr-13 12:32N 32°03' E 120°24'0 0.0
2014-Apr-13 11:31N 32°03' E 120°24'0 0.0
2014-Apr-13 10:29N 32°03' E 120°24'0 0.0
2014-Apr-13 09:31N 32°03' E 120°24'0 0.0
2014-Apr-13 08:32N 32°03' E 120°24'0 0.0
2014-Apr-13 07:31N 32°03' E 120°24'0 0.0
2014-Apr-13 06:32N 32°03' E 120°24'0 0.0
2014-Apr-13 05:31N 32°03' E 120°24'0 0.0
2014-Apr-13 04:31N 32°03' E 120°24'0 0.0
2014-Apr-13 03:32N 32°03' E 120°24'0 0.0
2014-Apr-13 02:32N 32°03' E 120°24'0 0.0
2014-Apr-13 01:32N 32°03' E 120°24'0 0.1
2014-Apr-13 00:32N 32°03' E 120°24'0 0.1
2014-Apr-12 23:28N 32°02' E 120°24'0 0.0
2014-Apr-12 22:32N 32°02' E 120°24'0 0.0
2014-Apr-12 21:31N 32°02' E 120°24'0 0.0
2014-Apr-12 20:32N 32°02' E 120°24'0 0.0
2014-Apr-12 19:31N 32°02' E 120°24'0 0.0
2014-Apr-12 18:26N 32°02' E 120°24'0 0.0
2014-Apr-12 17:26N 32°02' E 120°24'0 0.0
2014-Apr-12 16:32N 32°02' E 120°24'0 0.0
2014-Apr-12 15:31N 32°02' E 120°24'0 0.0
2014-Apr-12 14:31N 32°02' E 120°24'0 0.0
2014-Apr-12 13:31N 32°02' E 120°24'0 0.0
2014-Apr-12 12:31N 32°02' E 120°24'0 0.0
2014-Apr-12 11:31N 32°02' E 120°24'0 0.0
2014-Apr-12 10:28N 32°02' E 120°24'0 0.0
2014-Apr-12 09:19N 32°02' E 120°24'0 0.0
2014-Apr-12 08:20N 32°02' E 120°24'0 0.0
2014-Apr-12 07:32N 32°02' E 120°24'0 0.0
2014-Apr-12 06:32N 32°02' E 120°24'0 0.0
2014-Apr-12 05:31N 32°02' E 120°24'0 0.0
2014-Apr-12 04:31N 32°02' E 120°24'0 0.0
2014-Apr-12 03:32N 32°02' E 120°24'0 0.0
2014-Apr-12 02:31N 32°02' E 120°24'0 0.0
2014-Apr-12 01:31N 32°02' E 120°24'0 0.0
2014-Apr-12 00:32N 32°02' E 120°24'0 0.0
2014-Apr-11 23:31N 32°02' E 120°24'0 0.0
2014-Apr-11 22:31N 32°02' E 120°24'0 0.0
2014-Apr-11 21:32N 32°02' E 120°24'0 0.0
2014-Apr-11 20:22N 32°02' E 120°24'0 0.0
2014-Apr-11 19:19N 32°02' E 120°24'0 0.0
2014-Apr-11 18:28N 32°02' E 120°24'0 0.0
2014-Apr-11 17:28N 32°02' E 120°24'0 0.0
2014-Apr-11 16:31N 32°02' E 120°24'0 0.0
2014-Apr-11 15:31N 32°02' E 120°24'0 0.0
2014-Apr-11 14:31N 32°02' E 120°24'0 0.0
2014-Apr-11 13:31N 32°02' E 120°24'0 0.0
2014-Apr-11 12:31N 32°02' E 120°24'0 0.0
2014-Apr-11 11:31N 32°02' E 120°24'0 0.0
2014-Apr-11 10:31N 32°02' E 120°24'0 0.0
2014-Apr-11 09:22N 32°02' E 120°24'0 0.0
2014-Apr-11 08:31N 32°02' E 120°24'0 0.0
2014-Apr-11 07:31N 32°02' E 120°24'0 0.0
2014-Apr-11 06:31N 32°02' E 120°24'0 0.0
2014-Apr-11 05:31N 32°02' E 120°24'0 0.0
2014-Apr-11 04:25N 32°02' E 120°24'0 0.0
2014-Apr-11 03:31N 32°02' E 120°24'0 0.0
2014-Apr-11 02:29N 32°02' E 120°24'0 0.0
2014-Apr-11 01:31N 32°02' E 120°24'0 0.0
2014-Apr-11 00:31N 32°02' E 120°24'0 0.0
2014-Apr-10 23:28N 32°02' E 120°24'0 0.0
2014-Apr-10 22:31N 32°02' E 120°24'0 0.0
2014-Apr-10 21:31N 32°02' E 120°24'0 0.0
2014-Apr-10 20:31N 32°02' E 120°24'0 0.0
2014-Apr-10 19:31N 32°02' E 120°24'0 0.0
2014-Apr-10 18:31N 32°02' E 120°24'0 0.0
2014-Apr-10 17:28N 32°02' E 120°24'0 0.0
2014-Apr-10 16:31N 32°02' E 120°24'0 0.0
2014-Apr-10 15:31N 32°02' E 120°24'0 0.0
2014-Apr-10 14:31N 32°02' E 120°24'0 0.0
2014-Apr-10 13:31N 32°02' E 120°24'0 0.0
2014-Apr-10 12:31N 32°02' E 120°24'0 0.0
2014-Apr-10 11:31N 32°02' E 120°24'0 0.0
2014-Apr-10 10:31N 32°02' E 120°24'0 0.0
2014-Apr-10 09:22N 32°02' E 120°24'0 0.0
2014-Apr-10 08:22N 32°02' E 120°24'0 0.0
2014-Apr-10 07:28N 32°02' E 120°24'  

Dump ship's entire track history

sailing weather and tide predictions

Star Herdla — LAVD4 — position and weather